createdAt,value
2022-07-28T00:09:46.223Z,1.80
2022-07-28T00:12:13.170Z,2.13
2022-07-28T00:14:39.946Z,2.03
2022-07-28T00:17:06.822Z,1.70
2022-07-28T00:22:07.562Z,1.98
2022-07-28T00:29:49.840Z,1.73
2022-07-28T00:32:18.988Z,1.80
2022-07-28T00:48:55.589Z,1.92
2022-07-28T01:04:06.438Z,1.50
2022-07-28T01:06:54.084Z,1.77
2022-07-28T01:12:22.105Z,1.95
2022-07-28T01:23:11.728Z,1.75
2022-07-28T01:36:45.391Z,2.17
2022-07-28T01:46:55.410Z,1.67
2022-07-28T01:49:23.536Z,1.85
2022-07-28T01:51:51.578Z,1.77
2022-07-28T01:56:56.294Z,1.80
2022-07-28T02:04:39.162Z,1.80
2022-07-28T02:07:08.619Z,1.85
2022-07-28T02:19:54.702Z,1.95
2022-07-28T02:22:21.909Z,1.80
2022-07-28T02:24:48.991Z,1.73
2022-07-28T02:41:26.025Z,2.08
2022-07-28T02:57:08.128Z,2.20
2022-07-28T03:25:28.804Z,2.20
2022-07-28T03:27:59.442Z,2.05
2022-07-28T03:30:31.853Z,1.88
2022-07-28T03:40:52.254Z,1.83
2022-07-28T03:43:24.231Z,1.80
2022-07-28T04:01:10.698Z,2.80
2022-07-28T04:03:43.661Z,2.25
2022-07-28T04:13:52.017Z,2.58
2022-07-28T04:16:18.838Z,2.70
2022-07-28T04:47:18.195Z,2.65
2022-07-28T04:59:57.545Z,2.80
2022-07-28T05:02:24.661Z,2.35
2022-07-28T05:07:25.112Z,2.75
2022-07-28T05:09:51.914Z,2.22
2022-07-28T05:14:51.062Z,3.30
2022-07-28T05:17:17.901Z,2.75
2022-07-28T05:22:17.546Z,3.70
2022-07-28T05:24:44.430Z,2.42
2022-07-28T05:29:47.673Z,2.88
2022-07-28T05:32:17.394Z,2.90
2022-07-28T05:34:45.797Z,3.13
2022-07-28T05:47:20.987Z,2.20
2022-07-28T05:49:47.759Z,2.85
2022-07-28T05:57:21.146Z,2.55
2022-07-28T05:59:47.917Z,2.92
2022-07-28T06:02:14.787Z,3.00
2022-07-28T06:15:53.229Z,3.78
2022-07-28T06:33:34.076Z,3.90
2022-07-28T06:36:00.919Z,5.15
2022-07-28T06:38:28.057Z,5.30
2022-07-28T06:40:54.891Z,5.50
2022-07-28T06:45:55.060Z,5.87
2022-07-28T06:48:23.618Z,5.03
2022-07-28T06:50:52.704Z,5.80
2022-07-28T06:58:24.062Z,5.40
2022-07-28T07:00:50.919Z,5.47
2022-07-28T07:15:58.055Z,5.03
2022-07-28T07:26:03.864Z,4.75
2022-07-28T07:28:30.770Z,4.93
2022-07-28T07:30:57.644Z,5.50
2022-07-28T07:33:24.555Z,4.80
2022-07-28T07:35:51.414Z,5.13
2022-07-28T07:53:26.035Z,4.22
2022-07-28T08:06:04.470Z,3.15
2022-07-28T08:08:38.578Z,3.80
2022-07-28T08:11:08.879Z,3.35
2022-07-28T08:13:35.700Z,3.72
2022-07-28T08:16:03.967Z,3.20
2022-07-28T08:18:30.830Z,3.63
2022-07-28T08:20:57.938Z,3.70
2022-07-28T08:23:26.366Z,3.20
2022-07-28T08:25:54.083Z,3.22
2022-07-28T08:28:20.933Z,2.67
2022-07-28T08:30:48.287Z,3.30
2022-07-28T08:33:15.065Z,2.95
2022-07-28T08:35:41.956Z,3.55
2022-07-28T08:38:08.782Z,3.10
2022-07-28T08:40:38.460Z,3.90
2022-07-28T08:43:24.234Z,3.03
2022-07-28T08:45:58.085Z,2.83
2022-07-28T08:48:31.283Z,3.33
2022-07-28T08:51:08.266Z,3.17
2022-07-28T08:53:37.928Z,4.53
2022-07-28T08:56:13.061Z,2.90
2022-07-28T08:58:40.263Z,3.00
2022-07-28T09:01:08.686Z,2.45
2022-07-28T09:03:37.234Z,2.25
2022-07-28T09:06:04.947Z,3.13
2022-07-28T09:08:31.842Z,3.33
2022-07-28T09:10:58.658Z,3.10
2022-07-28T09:13:25.529Z,2.80
2022-07-28T09:15:52.538Z,3.88
2022-07-28T09:18:19.486Z,2.40
2022-07-28T09:20:46.471Z,2.60
2022-07-28T09:23:42.104Z,2.47
2022-07-28T09:26:12.611Z,2.97
2022-07-28T09:28:59.284Z,2.97
2022-07-28T09:31:30.670Z,3.20
2022-07-28T09:34:04.004Z,3.65
2022-07-28T09:36:39.114Z,3.25
2022-07-28T09:39:06.397Z,3.20
2022-07-28T09:41:55.292Z,2.38
2022-07-28T09:44:24.433Z,2.92
2022-07-28T09:46:51.636Z,3.20
2022-07-28T09:49:19.001Z,2.70
2022-07-28T09:52:03.856Z,2.50
2022-07-28T09:54:30.695Z,3.22
2022-07-28T09:56:58.675Z,3.25
2022-07-28T09:59:26.398Z,2.60
2022-07-28T10:02:02.538Z,3.20
2022-07-28T10:04:41.448Z,2.33
2022-07-28T10:07:19.560Z,2.60
2022-07-28T10:10:07.673Z,2.70
2022-07-28T10:12:38.795Z,3.10
2022-07-28T10:15:46.756Z,3.00
2022-07-28T10:18:20.060Z,2.58
2022-07-28T10:20:47.163Z,2.95
2022-07-28T10:23:16.077Z,2.92
2022-07-28T10:25:44.736Z,3.55
2022-07-28T10:28:13.143Z,3.72
2022-07-28T10:30:41.412Z,3.40
2022-07-28T10:33:19.682Z,3.42
2022-07-28T10:35:55.262Z,3.45
2022-07-28T10:38:30.315Z,3.42
2022-07-28T10:40:59.609Z,3.00
2022-07-28T10:43:29.153Z,3.67
2022-07-28T10:46:06.092Z,3.17
2022-07-28T10:48:37.911Z,4.30
2022-07-28T10:51:06.013Z,3.13
2022-07-28T10:53:41.358Z,3.50
2022-07-28T10:56:20.024Z,3.30
2022-07-28T10:59:07.064Z,3.33
2022-07-28T11:01:49.776Z,3.30
2022-07-28T11:07:14.356Z,3.47
2022-07-28T11:09:42.867Z,2.97
2022-07-28T11:12:16.052Z,3.08
2022-07-28T11:14:43.950Z,2.40
2022-07-28T11:17:14.492Z,2.63
2022-07-28T11:19:55.643Z,3.22
2022-07-28T11:22:33.908Z,3.35
2022-07-28T11:25:20.775Z,2.78
2022-07-28T11:27:52.339Z,3.38
2022-07-28T11:30:19.741Z,2.92
2022-07-28T11:32:55.096Z,2.67
2022-07-28T11:35:26.662Z,2.72
2022-07-28T11:38:02.180Z,2.55
2022-07-28T11:40:52.428Z,2.45
2022-07-28T11:43:36.690Z,2.63
2022-07-28T11:46:07.586Z,2.97
2022-07-28T11:48:41.291Z,2.85
2022-07-28T11:51:10.949Z,3.17
2022-07-28T11:53:47.915Z,3.45
2022-07-28T11:56:29.386Z,3.15
2022-07-28T11:59:02.133Z,2.70
2022-07-28T12:01:31.966Z,2.60
2022-07-28T12:04:00.801Z,2.45
2022-07-28T12:06:40.499Z,2.50
2022-07-28T12:09:09.447Z,2.47
2022-07-28T12:11:41.664Z,2.58
2022-07-28T12:14:17.897Z,2.20
2022-07-28T12:16:50.376Z,2.30
2022-07-28T12:19:20.322Z,1.85
2022-07-28T12:21:53.156Z,3.03
2022-07-28T12:24:45.024Z,2.70
2022-07-28T12:27:14.959Z,2.83
2022-07-28T12:29:42.544Z,2.42
2022-07-28T12:32:10.362Z,2.15
2022-07-28T12:34:40.690Z,3.05
2022-07-28T12:37:10.132Z,2.97
2022-07-28T12:39:39.933Z,2.50
2022-07-28T12:42:10.211Z,2.33
2022-07-28T12:44:48.964Z,2.00
2022-07-28T12:47:25.637Z,2.00
2022-07-28T12:50:14.282Z,2.30
2022-07-28T12:52:43.893Z,1.98
2022-07-28T12:55:27.886Z,2.40
2022-07-28T12:57:54.746Z,1.67
2022-07-28T13:00:32.116Z,2.33
2022-07-28T13:03:02.149Z,1.92
2022-07-28T13:05:57.577Z,2.33
2022-07-28T13:08:27.477Z,2.38
2022-07-28T13:10:57.442Z,2.67
2022-07-28T13:13:26.869Z,2.25
2022-07-28T13:16:14.590Z,2.20
2022-07-28T13:18:54.258Z,2.33
2022-07-28T13:21:36.661Z,2.35
2022-07-28T13:24:04.053Z,2.65
2022-07-28T13:26:31.874Z,3.03
2022-07-28T13:29:12.849Z,2.15
2022-07-28T13:31:40.303Z,2.58
2022-07-28T13:34:10.015Z,2.10
2022-07-28T13:36:38.353Z,2.38
2022-07-28T13:39:06.633Z,2.38
2022-07-28T13:41:57.441Z,2.17
2022-07-28T13:44:20.390Z,2.75
2022-07-28T13:46:50.062Z,2.55
2022-07-28T13:49:17.423Z,2.85
2022-07-28T13:51:48.487Z,2.30
2022-07-28T13:54:18.469Z,3.45
2022-07-28T13:56:46.027Z,2.08
2022-07-28T13:59:13.860Z,2.38
2022-07-28T14:01:42.357Z,2.45
2022-07-28T14:04:14.800Z,2.20
2022-07-28T14:06:45.063Z,2.72
2022-07-28T14:09:12.951Z,2.58
2022-07-28T14:14:24.088Z,2.30
2022-07-28T14:16:54.423Z,2.95
2022-07-28T14:19:38.996Z,2.38
2022-07-28T14:22:13.571Z,2.25
2022-07-28T14:24:43.732Z,2.53
2022-07-28T14:27:11.553Z,2.20
2022-07-28T14:29:39.355Z,2.58
2022-07-28T14:32:07.211Z,2.08
2022-07-28T14:34:34.742Z,2.40
2022-07-28T14:37:08.593Z,2.10
2022-07-28T14:39:36.846Z,2.47
2022-07-28T14:42:04.615Z,2.22
2022-07-28T14:44:31.447Z,2.20
2022-07-28T14:46:58.324Z,2.70
2022-07-28T14:49:25.243Z,2.60
2022-07-28T14:51:52.115Z,2.40
2022-07-28T14:54:19.328Z,2.38
2022-07-28T14:56:46.313Z,2.33
2022-07-28T14:59:13.121Z,2.38
2022-07-28T15:01:41.139Z,2.58
2022-07-28T15:04:10.106Z,2.20
2022-07-28T15:06:36.940Z,2.83
2022-07-28T15:09:04.218Z,2.10
2022-07-28T15:11:31.078Z,2.58
2022-07-28T15:13:58.437Z,2.78
2022-07-28T15:16:25.412Z,2.53
2022-07-28T15:18:53.389Z,2.80
2022-07-28T15:21:20.312Z,2.38
2022-07-28T15:23:47.193Z,1.88
2022-07-28T15:26:14.230Z,2.25
2022-07-28T15:28:41.177Z,2.80
2022-07-28T15:31:08.730Z,2.72
2022-07-28T15:33:47.902Z,2.95
2022-07-28T15:36:15.906Z,2.22
2022-07-28T15:38:47.301Z,1.95
2022-07-28T15:41:16.826Z,2.67
2022-07-28T15:43:44.083Z,2.13
2022-07-28T15:46:13.729Z,2.20
2022-07-28T15:48:43.898Z,2.10
2022-07-28T15:51:11.856Z,2.92
2022-07-28T15:53:39.027Z,2.60
2022-07-28T15:56:06.329Z,2.00
2022-07-28T15:58:33.236Z,2.13
2022-07-28T16:01:01.747Z,2.40
2022-07-28T16:03:30.177Z,2.20
2022-07-28T16:05:58.906Z,2.50
2022-07-28T16:08:26.931Z,2.35
2022-07-28T16:10:54.859Z,3.50
2022-07-28T16:13:36.555Z,2.17
2022-07-28T16:16:11.904Z,2.67
2022-07-28T16:18:40.927Z,2.60
2022-07-28T16:21:09.595Z,2.53
2022-07-28T16:23:36.431Z,2.50
2022-07-28T16:26:05.200Z,2.88
2022-07-28T16:28:32.161Z,2.53
2022-07-28T16:30:59.006Z,2.50
2022-07-28T16:33:25.887Z,2.65
2022-07-28T16:35:53.371Z,2.28
2022-07-28T16:38:20.177Z,2.30
2022-07-28T16:40:47.227Z,2.88
2022-07-28T16:43:17.738Z,2.63
2022-07-28T16:45:44.545Z,2.78
2022-07-28T16:48:11.402Z,2.17
2022-07-28T16:50:38.744Z,2.63
2022-07-28T16:53:08.968Z,2.60
2022-07-28T16:55:35.867Z,2.60
2022-07-28T16:58:02.767Z,1.98
2022-07-28T17:00:29.677Z,2.65
2022-07-28T17:02:56.454Z,3.00
2022-07-28T17:05:23.739Z,2.30
2022-07-28T17:07:52.179Z,2.95
2022-07-28T17:10:21.288Z,2.38
2022-07-28T17:12:54.437Z,2.75
2022-07-28T17:15:22.770Z,2.28
2022-07-28T17:17:51.884Z,2.78
2022-07-28T17:20:20.200Z,2.35
2022-07-28T17:22:47.400Z,2.15
2022-07-28T17:28:01.471Z,3.00
2022-07-28T17:30:29.914Z,2.90
2022-07-28T17:32:59.235Z,2.55
2022-07-28T17:35:34.662Z,3.03
2022-07-28T17:38:07.824Z,2.45
2022-07-28T17:40:34.844Z,3.08
2022-07-28T17:43:01.674Z,2.22
2022-07-28T17:45:28.530Z,2.45
2022-07-28T17:47:56.441Z,2.40
2022-07-28T17:50:23.510Z,2.83
2022-07-28T17:52:50.290Z,2.20
2022-07-28T17:56:00.670Z,2.53
2022-07-28T17:58:32.402Z,2.45
2022-07-28T18:01:12.121Z,2.17
2022-07-28T18:03:56.807Z,2.22
2022-07-28T18:06:38.458Z,2.78
2022-07-28T18:09:08.714Z,3.35
2022-07-28T18:11:55.502Z,2.22
2022-07-28T18:14:24.342Z,2.10
2022-07-28T18:16:51.188Z,2.70
2022-07-28T18:19:17.975Z,2.38
2022-07-28T18:21:44.809Z,1.98
2022-07-28T18:24:11.741Z,2.25
2022-07-28T18:26:38.668Z,2.67
2022-07-28T18:29:05.493Z,1.92
2022-07-28T18:31:32.355Z,2.33
2022-07-28T18:33:59.251Z,2.20
2022-07-28T18:36:26.123Z,2.80
2022-07-28T18:38:52.964Z,2.70
2022-07-28T18:41:19.889Z,2.72
2022-07-28T18:43:46.852Z,2.75
2022-07-28T18:46:14.089Z,3.30
2022-07-28T18:48:41.052Z,3.22
2022-07-28T18:51:07.959Z,3.88
2022-07-28T18:53:36.399Z,4.30
2022-07-28T18:56:03.259Z,4.60
2022-07-28T18:58:30.113Z,4.22
2022-07-28T19:00:56.914Z,3.63
2022-07-28T19:03:23.641Z,3.35
2022-07-28T19:05:51.069Z,3.92
2022-07-28T19:08:17.852Z,3.65
2022-07-28T19:10:44.738Z,4.07
2022-07-28T19:13:13.105Z,4.13
2022-07-28T19:15:41.435Z,4.15
2022-07-28T19:18:09.693Z,3.67
2022-07-28T19:20:39.951Z,3.60
2022-07-28T19:23:07.218Z,3.25
2022-07-28T19:25:36.473Z,4.53
2022-07-28T19:28:04.728Z,5.15
2022-07-28T19:30:32.477Z,5.68
2022-07-28T19:32:59.900Z,3.92
2022-07-28T19:35:26.690Z,4.15
2022-07-28T19:37:56.733Z,4.00
2022-07-28T19:40:25.371Z,4.07
2022-07-28T19:42:52.352Z,3.83
2022-07-28T19:45:19.217Z,5.88
2022-07-28T19:47:46.023Z,4.07
2022-07-28T19:50:17.054Z,3.45
2022-07-28T19:52:43.948Z,3.63
2022-07-28T19:55:10.728Z,4.65
2022-07-28T19:57:42.281Z,4.10
2022-07-28T20:00:10.619Z,3.47
2022-07-28T20:02:38.045Z,3.08
2022-07-28T20:05:06.770Z,4.13
2022-07-28T20:07:33.647Z,3.28
2022-07-28T20:10:01.151Z,3.85
2022-07-28T20:12:34.180Z,3.95
2022-07-28T20:15:01.099Z,3.33
2022-07-28T20:17:37.878Z,4.00
2022-07-28T20:20:08.308Z,3.70
2022-07-28T20:22:35.489Z,3.22
2022-07-28T20:25:02.389Z,4.32
2022-07-28T20:27:29.179Z,3.50
2022-07-28T20:29:55.995Z,4.10
2022-07-28T20:32:22.827Z,3.45
2022-07-28T20:34:51.531Z,2.72
2022-07-28T20:37:35.858Z,4.18
2022-07-28T20:40:03.983Z,4.25
2022-07-28T20:42:30.742Z,2.90
2022-07-28T20:44:57.535Z,3.00
2022-07-28T20:47:26.110Z,2.97
2022-07-28T20:49:53.562Z,3.53
2022-07-28T20:52:20.358Z,3.00
2022-07-28T20:54:51.963Z,3.22
2022-07-28T20:57:20.934Z,2.13
2022-07-28T20:59:49.017Z,2.25
2022-07-28T21:02:15.867Z,1.95
2022-07-28T21:04:42.732Z,2.95
2022-07-28T21:07:10.912Z,2.30
2022-07-28T21:09:37.813Z,2.30
2022-07-28T21:12:05.404Z,2.30
2022-07-28T21:14:34.738Z,2.03
2022-07-28T21:17:01.717Z,1.70
2022-07-28T21:19:28.637Z,2.60
2022-07-28T21:21:55.471Z,1.80
2022-07-28T21:24:22.289Z,2.60
2022-07-28T21:26:53.543Z,1.85
2022-07-28T21:32:03.829Z,1.48
2022-07-28T21:34:34.207Z,1.67
2022-07-28T21:37:03.659Z,1.40
2022-07-28T21:39:31.122Z,1.45
2022-07-28T21:41:58.074Z,1.30
2022-07-28T21:44:25.196Z,1.58
2022-07-28T21:46:52.040Z,1.70
2022-07-28T21:49:18.891Z,1.48
2022-07-28T21:51:46.480Z,1.50
2022-07-28T21:54:13.824Z,1.50
2022-07-28T21:56:41.061Z,1.00
2022-07-28T21:59:07.856Z,1.40
2022-07-28T22:01:34.899Z,1.30
2022-07-28T22:04:01.871Z,1.63
2022-07-28T22:06:28.713Z,1.27
2022-07-28T22:08:55.528Z,1.50
2022-07-28T22:11:23.055Z,1.63
2022-07-28T22:13:50.556Z,1.30
2022-07-28T22:16:17.475Z,1.25
2022-07-28T22:18:44.465Z,1.48
2022-07-28T22:21:11.312Z,1.23
2022-07-28T22:23:38.122Z,1.20
2022-07-28T22:26:04.926Z,1.20
2022-07-28T22:28:31.724Z,1.25
2022-07-28T22:31:09.115Z,1.42
2022-07-28T22:33:38.666Z,1.45
2022-07-28T22:36:09.202Z,1.60
2022-07-28T22:38:36.483Z,1.48
2022-07-28T22:41:03.849Z,1.60
2022-07-28T22:43:33.726Z,1.67
2022-07-28T22:46:00.945Z,1.33
2022-07-28T22:48:28.463Z,1.38
2022-07-28T22:50:55.399Z,1.63
2022-07-28T22:53:22.187Z,1.92
2022-07-28T22:55:49.038Z,1.27
2022-07-28T22:58:15.848Z,1.85
2022-07-28T23:00:42.745Z,1.25
2022-07-28T23:03:13.141Z,1.58
2022-07-28T23:08:09.442Z,1.60
2022-07-28T23:10:37.559Z,2.30
2022-07-28T23:13:04.548Z,1.60
2022-07-28T23:15:41.286Z,1.65
2022-07-28T23:18:10.701Z,1.63
2022-07-28T23:20:39.555Z,1.67
2022-07-28T23:23:07.243Z,1.73
2022-07-28T23:25:37.030Z,1.92
2022-07-28T23:28:04.066Z,1.35
2022-07-28T23:30:30.863Z,1.40
2022-07-28T23:32:57.787Z,1.85
2022-07-28T23:35:25.110Z,2.42
2022-07-28T23:37:52.121Z,1.98
2022-07-28T23:40:18.953Z,1.85
2022-07-28T23:42:45.711Z,2.15
2022-07-28T23:45:12.575Z,1.83
2022-07-28T23:47:39.385Z,1.98
2022-07-28T23:50:07.167Z,1.95
2022-07-28T23:52:33.955Z,1.73
2022-07-28T23:55:00.790Z,1.85
2022-07-28T23:57:30.978Z,1.92
2022-07-28T23:59:59.561Z,2.00
